Time;durP1;ratioP1;P1;durP2;ratioP2;P2;SDS_P1;SDS_P2;PMS_P1;PMS_P2;Temp;Humidity;BMP_temperature;BMP_pressure;BME280_temperature;BME280_humidity;BME280_pressure;Samples;Min_cycle;Max_cycle;Signal;HPM_P1;HPM_P2
2023/12/25 00:01:32;;;;;;;2.65;1.00;;;11.30;1.00;;;;;;7377228;19;20017;-70
2023/12/25 00:04:05;;;;;;;2.25;0.90;;;11.30;1.00;;;;;;7378435;19;19998;-71
2023/12/25 00:06:35;;;;;;;2.72;1.02;;;11.20;1.00;;;;;;7378619;19;20019;-70
2023/12/25 00:09:05;;;;;;;7.45;1.52;;;11.30;1.00;;;;;;7377071;19;20006;-70
2023/12/25 00:11:35;;;;;;;3.70;1.00;;;11.20;1.00;;;;;;7378030;19;20006;-70
2023/12/25 00:14:05;;;;;;;2.00;0.90;;;11.20;1.00;;;;;;7377600;19;20036;-71
2023/12/25 00:16:35;;;;;;;2.13;0.77;;;11.20;1.00;;;;;;7377417;19;20018;-71
2023/12/25 00:19:07;;;;;;;1.98;0.88;;;11.20;1.00;;;;;;7377514;19;20363;-70
2023/12/25 00:21:39;;;;;;;3.20;1.15;;;11.20;1.00;;;;;;7378587;19;20014;-70
2023/12/25 00:24:09;;;;;;;1.98;0.85;;;11.20;1.00;;;;;;7378023;19;20033;-70
2023/12/25 00:26:40;;;;;;;2.50;0.90;;;11.20;1.00;;;;;;7374575;19;20006;-71
2023/12/25 00:29:10;;;;;;;3.03;0.90;;;11.10;1.00;;;;;;7377251;19;20365;-70
2023/12/25 00:31:41;;;;;;;3.25;0.80;;;11.10;1.00;;;;;;7376738;19;20479;-70
2023/12/25 00:34:15;;;;;;;3.05;0.90;;;11.10;1.00;;;;;;7376434;19;20673;-70
2023/12/25 00:36:45;;;;;;;1.02;0.60;;;11.10;1.00;;;;;;7377753;19;20022;-70
2023/12/25 00:39:15;;;;;;;3.33;0.95;;;11.10;1.00;;;;;;7376189;19;20031;-70
2023/12/25 00:41:45;;;;;;;1.77;0.73;;;11.10;1.00;;;;;;7376556;19;20038;-70
2023/12/25 00:44:15;;;;;;;2.15;1.02;;;11.10;1.00;;;;;;7377422;19;20026;-70
2023/12/25 00:46:45;;;;;;;3.03;0.82;;;11.00;1.00;;;;;;7376147;19;20022;-69
2023/12/25 00:49:19;;;;;;;2.25;0.98;;;11.10;1.00;;;;;;7376059;19;20476;-69
2023/12/25 00:51:49;;;;;;;1.77;0.90;;;11.10;1.00;;;;;;7376744;19;20033;-70
2023/12/25 00:54:19;;;;;;;3.25;1.45;;;11.00;1.00;;;;;;7377552;19;20018;-70
2023/12/25 00:56:49;;;;;;;2.10;1.00;;;11.00;1.00;;;;;;7376751;19;20475;-70
2023/12/25 00:59:20;;;;;;;3.13;1.20;;;11.00;1.00;;;;;;7376680;19;20011;-69
2023/12/25 01:01:50;;;;;;;2.10;0.90;;;11.00;1.00;;;;;;7377106;19;20089;-70
2023/12/25 01:04:22;;;;;;;2.72;0.98;;;11.00;1.00;;;;;;7376695;19;20074;-70
2023/12/25 01:06:52;;;;;;;2.45;0.90;;;10.90;1.00;;;;;;7378172;19;20032;-70
2023/12/25 01:09:23;;;;;;;3.30;1.00;;;10.90;1.00;;;;;;7377203;19;20456;-71
2023/12/25 01:11:50;;;;;;;2.10;0.80;;;10.90;1.00;;;;;;7377929;19;20007;-69
2023/12/25 01:14:21;;;;;;;2.30;0.90;;;10.80;1.00;;;;;;7377798;19;20106;-70
2023/12/25 01:16:51;;;;;;;1.55;0.90;;;10.80;1.00;;;;;;7378356;19;20543;-70
2023/12/25 01:19:24;;;;;;;2.17;0.80;;;10.70;1.00;;;;;;7379908;19;20014;-69
2023/12/25 01:21:54;;;;;;;2.25;0.98;;;10.70;1.00;;;;;;7374256;19;20014;-70
2023/12/25 01:24:24;;;;;;;1.80;1.20;;;10.70;1.00;;;;;;7373039;19;20375;-69
2023/12/25 01:26:54;;;;;;;1.02;0.80;;;10.60;1.00;;;;;;7376713;19;20010;-70
2023/12/25 01:29:24;;;;;;;1.77;0.70;;;10.60;1.00;;;;;;7376307;19;20368;-70
2023/12/25 01:31:54;;;;;;;1.20;0.80;;;10.50;1.00;;;;;;7374396;19;20006;-72
2023/12/25 01:34:27;;;;;;;2.80;1.13;;;10.50;1.00;;;;;;7376142;19;20817;-71
2023/12/25 01:36:57;;;;;;;2.92;1.00;;;10.60;1.00;;;;;;7370893;19;19999;-72
2023/12/25 01:39:27;;;;;;;2.38;1.08;;;10.50;1.00;;;;;;7374028;19;20011;-70
2023/12/25 01:41:57;;;;;;;1.25;0.75;;;10.50;1.00;;;;;;7375592;19;20515;-72
2023/12/25 01:44:27;;;;;;;2.67;0.60;;;10.50;1.00;;;;;;7375065;19;20015;-70
2023/12/25 01:46:57;;;;;;;2.28;0.70;;;10.50;1.00;;;;;;7375550;19;20007;-70
2023/12/25 01:49:30;;;;;;;4.43;0.75;;;10.50;1.00;;;;;;7375682;19;20014;-71
2023/12/25 01:52:01;;;;;;;3.65;0.93;;;10.50;1.00;;;;;;7375012;19;20051;-71
2023/12/25 01:54:31;;;;;;;2.05;0.88;;;10.40;1.00;;;;;;7374820;19;20023;-70
2023/12/25 01:57:01;;;;;;;1.35;0.70;;;10.40;1.00;;;;;;7374439;19;20021;-71
2023/12/25 01:59:31;;;;;;;2.10;0.82;;;10.40;1.00;;;;;;7373162;19;20063;-72
2023/12/25 02:02:02;;;;;;;3.90;0.70;;;10.30;1.00;;;;;;7374468;19;20010;-71
2023/12/25 02:04:35;;;;;;;2.47;1.10;;;10.40;1.00;;;;;;7373590;19;20015;-71
2023/12/25 02:07:05;;;;;;;2.22;0.80;;;10.30;1.00;;;;;;7374671;19;20020;-70
2023/12/25 02:09:33;;;;;;;1.40;0.80;;;10.30;1.00;;;;;;7373341;19;20372;-70
2023/12/25 02:12:03;;;;;;;3.42;0.88;;;10.30;1.00;;;;;;7374187;19;20014;-70
2023/12/25 02:14:33;;;;;;;2.13;0.90;;;10.20;1.00;;;;;;7374867;19;20010;-70
2023/12/25 02:17:03;;;;;;;0.93;0.70;;;10.10;1.00;;;;;;7373781;19;20017;-71
2023/12/25 02:19:40;;;;;;;2.67;1.25;;;10.10;1.00;;;;;;7372885;19;20014;-71
2023/12/25 02:22:11;;;;;;;1.70;0.93;;;10.10;1.00;;;;;;7374286;19;20013;-70
2023/12/25 02:24:51;;;;;;;3.00;0.82;;;10.10;1.00;;;;;;7374839;19;20011;-71
2023/12/25 02:27:23;;;;;;;2.13;1.10;;;10.10;1.00;;;;;;7374096;19;20007;-70
2023/12/25 02:29:53;;;;;;;1.30;0.70;;;10.00;1.00;;;;;;7375697;19;20467;-71
2023/12/25 02:32:23;;;;;;;1.75;0.80;;;10.00;1.00;;;;;;7375452;19;20015;-71
2023/12/25 02:34:54;;;;;;;1.02;0.73;;;10.00;1.00;;;;;;7375333;19;20011;-70
2023/12/25 02:37:24;;;;;;;1.63;0.80;;;10.00;1.00;;;;;;7374539;19;20014;-71
2023/12/25 02:39:54;;;;;;;3.60;1.23;;;10.00;1.00;;;;;;7375622;19;20019;-71
2023/12/25 02:42:27;;;;;;;2.08;0.98;;;10.00;1.00;;;;;;7376202;19;20010;-70
2023/12/25 02:44:54;;;;;;;1.77;0.77;;;9.90;1.00;;;;;;7374355;19;20501;-71
2023/12/25 02:47:25;;;;;;;4.43;1.00;;;9.90;1.00;;;;;;7371792;19;20018;-70
2023/12/25 02:49:55;;;;;;;1.15;0.73;;;9.90;1.00;;;;;;7378949;19;20492;-71
2023/12/25 02:52:25;;;;;;;3.20;0.88;;;10.00;1.00;;;;;;7380937;19;20025;-70
2023/12/25 02:54:55;;;;;;;2.42;0.95;;;10.00;1.00;;;;;;7382117;19;20344;-71
2023/12/25 02:57:28;;;;;;;2.45;0.63;;;10.00;1.00;;;;;;7380871;19;20049;-70
2023/12/25 02:59:58;;;;;;;0.85;0.77;;;10.00;1.00;;;;;;7378577;19;20025;-70
2023/12/25 03:02:28;;;;;;;2.58;0.57;;;9.90;1.00;;;;;;7379585;19;20018;-71
2023/12/25 03:04:58;;;;;;;1.77;0.57;;;9.90;1.00;;;;;;7379871;19;20078;-71
2023/12/25 03:07:28;;;;;;;2.33;1.10;;;9.90;1.00;;;;;;7382195;19;20025;-71
2023/12/25 03:09:58;;;;;;;3.10;1.02;;;9.90;1.00;;;;;;7381111;19;20014;-70
2023/12/25 03:12:31;;;;;;;5.18;1.30;;;9.90;1.00;;;;;;7380989;19;20018;-70
2023/12/25 03:15:01;;;;;;;1.52;0.77;;;9.90;1.00;;;;;;7378063;19;20403;-71
2023/12/25 03:17:31;;;;;;;3.03;0.88;;;9.90;1.00;;;;;;7380919;19;20017;-70
2023/12/25 03:20:01;;;;;;;3.15;1.13;;;9.90;1.00;;;;;;7379123;19;20043;-70
2023/12/25 03:22:31;;;;;;;1.45;0.73;;;9.90;1.00;;;;;;7381937;19;20474;-71
2023/12/25 03:25:02;;;;;;;3.17;1.20;;;10.00;1.00;;;;;;7379155;19;20014;-70
2023/12/25 03:27:34;;;;;;;1.35;0.70;;;10.00;1.00;;;;;;7376424;19;20498;-71
2023/12/25 03:30:05;;;;;;;1.27;0.70;;;10.00;1.00;;;;;;7378546;19;20011;-71
2023/12/25 03:32:35;;;;;;;2.70;0.80;;;10.00;1.00;;;;;;7378312;19;20388;-71
2023/12/25 03:35:06;;;;;;;2.50;0.70;;;10.00;1.00;;;;;;7377637;19;20017;-70
2023/12/25 03:37:36;;;;;;;3.13;0.70;;;10.00;1.00;;;;;;7378246;19;20014;-70
2023/12/25 03:40:07;;;;;;;0.90;0.70;;;10.00;1.00;;;;;;7377553;19;20467;-70
2023/12/25 03:42:42;;;;;;;4.68;0.65;;;10.00;1.00;;;;;;7378339;19;20030;-71
2023/12/25 03:45:12;;;;;;;0.88;0.52;;;10.00;1.00;;;;;;7381688;19;20424;-71
2023/12/25 03:47:42;;;;;;;2.15;0.85;;;10.10;1.00;;;;;;7379838;19;20007;-70
2023/12/25 03:50:13;;;;;;;1.20;0.70;;;10.00;1.00;;;;;;7378259;19;20989;-70
2023/12/25 03:52:44;;;;;;;2.13;0.68;;;10.00;1.00;;;;;;7377923;19;20026;-71
2023/12/25 03:55:15;;;;;;;1.70;0.70;;;10.00;1.00;;;;;;7378193;19;20050;-71
2023/12/25 03:57:48;;;;;;;2.05;0.77;;;10.10;1.00;;;;;;7377885;19;20015;-71
2023/12/25 04:00:18;;;;;;;1.08;0.70;;;10.10;1.00;;;;;;7378490;19;20017;-71
2023/12/25 04:02:47;;;;;;;1.45;0.70;;;10.10;1.00;;;;;;7378172;19;20010;-71
2023/12/25 04:05:17;;;;;;;1.30;0.60;;;10.10;1.00;;;;;;7378094;19;20035;-70
2023/12/25 04:07:47;;;;;;;1.08;0.60;;;10.10;1.00;;;;;;7376181;19;20006;-70
2023/12/25 04:10:18;;;;;;;2.15;0.80;;;10.00;1.00;;;;;;7378528;19;20003;-71
2023/12/25 04:12:50;;;;;;;2.28;0.65;;;10.10;1.00;;;;;;7377917;19;20030;-71
2023/12/25 04:15:21;;;;;;;1.45;0.70;;;10.10;1.00;;;;;;7377465;19;20945;-70
2023/12/25 04:17:50;;;;;;;2.00;0.70;;;10.00;1.00;;;;;;7377047;19;20018;-70
2023/12/25 04:20:21;;;;;;;1.15;0.70;;;10.10;1.00;;;;;;7375958;19;20011;-71
2023/12/25 04:22:51;;;;;;;1.48;0.70;;;10.00;1.00;;;;;;7377610;19;20018;-71
2023/12/25 04:25:21;;;;;;;0.98;0.65;;;10.00;1.00;;;;;;7377286;19;20078;-70
2023/12/25 04:27:54;;;;;;;2.22;0.73;;;9.90;1.00;;;;;;7376244;19;20475;-70
2023/12/25 04:30:24;;;;;;;0.95;0.82;;;9.90;1.00;;;;;;7376411;19;20002;-70
2023/12/25 04:32:55;;;;;;;2.90;0.68;;;9.90;1.00;;;;;;7377619;19;20028;-71
2023/12/25 04:35:25;;;;;;;1.58;0.80;;;9.90;1.00;;;;;;7377031;19;20027;-71
2023/12/25 04:37:55;;;;;;;2.20;0.52;;;9.90;1.00;;;;;;7376564;19;20152;-70
2023/12/25 04:40:25;;;;;;;0.70;0.50;;;10.00;1.00;;;;;;7376633;19;20069;-70
2023/12/25 04:42:58;;;;;;;1.30;0.82;;;10.00;1.00;;;;;;7376363;19;20013;-70
2023/12/25 04:45:28;;;;;;;1.65;0.60;;;10.00;1.00;;;;;;7377112;19;20365;-70
2023/12/25 04:47:58;;;;;;;1.65;0.68;;;10.10;1.00;;;;;;7376611;19;20104;-70
2023/12/25 04:50:28;;;;;;;1.10;0.60;;;10.00;1.00;;;;;;7376817;19;20002;-70
2023/12/25 04:52:58;;;;;;;1.38;0.70;;;10.00;1.00;;;;;;7376647;19;20444;-70
2023/12/25 04:55:30;;;;;;;0.90;0.50;;;10.00;1.00;;;;;;7377747;19;20016;-70
2023/12/25 04:58:03;;;;;;;1.80;1.00;;;10.00;1.00;;;;;;7376937;19;20002;-70
2023/12/25 05:00:34;;;;;;;1.33;0.80;;;9.90;1.00;;;;;;7374526;19;20011;-70
2023/12/25 05:03:05;;;;;;;0.90;0.60;;;9.90;1.00;;;;;;7374310;19;20021;-70
2023/12/25 05:05:36;;;;;;;1.63;0.70;;;10.00;1.00;;;;;;7374467;19;20030;-70
2023/12/25 05:08:06;;;;;;;1.00;0.60;;;9.90;1.00;;;;;;7375096;19;20014;-70
2023/12/25 05:10:36;;;;;;;0.80;0.52;;;9.90;1.00;;;;;;7376404;19;20094;-70
2023/12/25 05:13:09;;;;;;;1.08;0.50;;;9.90;1.00;;;;;;7374012;19;20816;-70
2023/12/25 05:15:40;;;;;;;1.52;0.60;;;10.00;1.00;;;;;;7374849;19;20015;-70
2023/12/25 05:18:10;;;;;;;1.77;0.50;;;10.00;1.00;;;;;;7373638;19;20010;-70
2023/12/25 05:20:40;;;;;;;1.20;0.60;;;9.90;1.00;;;;;;7375279;19;20006;-69
2023/12/25 05:23:10;;;;;;;1.60;0.95;;;9.90;1.00;;;;;;7375613;19;20010;-70
2023/12/25 05:25:40;;;;;;;0.88;0.63;;;9.90;1.00;;;;;;7375142;19;20014;-70
2023/12/25 05:28:13;;;;;;;1.40;0.60;;;9.90;1.00;;;;;;7374765;19;20014;-70
2023/12/25 05:30:43;;;;;;;1.17;0.50;;;10.00;1.00;;;;;;7375548;19;20007;-70
2023/12/25 05:33:13;;;;;;;0.85;0.52;;;9.90;1.00;;;;;;7375850;19;20006;-70
2023/12/25 05:35:43;;;;;;;0.82;0.55;;;9.90;1.00;;;;;;7376007;19;20014;-70
2023/12/25 05:38:13;;;;;;;0.98;0.63;;;9.90;1.00;;;;;;7373988;19;20006;-70
2023/12/25 05:40:43;;;;;;;1.85;0.65;;;10.00;1.00;;;;;;7374672;19;20616;-70
2023/12/25 05:43:17;;;;;;;1.52;0.80;;;9.90;1.00;;;;;;7373636;19;20390;-70
2023/12/25 05:45:47;;;;;;;2.10;0.80;;;9.90;1.00;;;;;;7375134;19;20101;-70
2023/12/25 05:48:17;;;;;;;2.15;0.60;;;9.90;1.00;;;;;;7373921;19;20100;-69
2023/12/25 05:50:47;;;;;;;1.63;0.70;;;9.90;1.00;;;;;;7374205;19;20003;-70
2023/12/25 05:53:17;;;;;;;3.45;0.90;;;9.90;1.00;;;;;;7374802;19;20010;-70
2023/12/25 05:55:48;;;;;;;3.17;0.70;;;9.90;1.00;;;;;;7374137;19;20044;-69
2023/12/25 05:58:20;;;;;;;1.95;0.57;;;9.80;1.00;;;;;;7373687;19;20128;-70
2023/12/25 06:00:50;;;;;;;2.67;0.52;;;9.90;1.00;;;;;;7373426;19;20082;-70
2023/12/25 06:03:20;;;;;;;0.85;0.60;;;9.80;1.00;;;;;;7374191;19;20513;-70
2023/12/25 06:05:50;;;;;;;0.60;0.50;;;9.80;1.00;;;;;;7372814;19;20044;-70
2023/12/25 06:08:21;;;;;;;1.00;0.50;;;9.80;1.00;;;;;;7373024;19;20007;-70
2023/12/25 06:10:51;;;;;;;0.82;0.50;;;9.80;1.00;;;;;;7378370;19;20007;-70
2023/12/25 06:13:23;;;;;;;1.75;0.47;;;9.80;1.00;;;;;;7374211;19;20030;-71
2023/12/25 06:15:55;;;;;;;0.88;0.65;;;9.80;1.00;;;;;;7370743;19;20027;-69
2023/12/25 06:18:25;;;;;;;0.73;0.47;;;9.80;1.00;;;;;;7372757;19;20018;-71
2023/12/25 06:20:55;;;;;;;1.35;0.63;;;9.70;1.00;;;;;;7373256;19;20018;-71
2023/12/25 06:23:28;;;;;;;1.73;0.70;;;9.70;1.00;;;;;;7373864;19;20010;-70
2023/12/25 06:25:58;;;;;;;2.42;0.60;;;9.80;1.00;;;;;;7379577;19;20082;-70
2023/12/25 06:28:31;;;;;;;0.77;0.60;;;9.80;1.00;;;;;;7380144;19;20035;-70
2023/12/25 06:31:01;;;;;;;3.10;0.70;;;9.70;1.00;;;;;;7380150;19;20006;-71
2023/12/25 06:33:33;;;;;;;0.55;0.50;;;9.70;1.00;;;;;;7380773;19;20360;-72
2023/12/25 06:36:03;;;;;;;1.63;0.70;;;9.70;1.00;;;;;;7380035;19;20063;-70
2023/12/25 06:38:33;;;;;;;1.00;0.55;;;9.70;1.00;;;;;;7379316;19;20018;-69
2023/12/25 06:41:04;;;;;;;2.03;0.55;;;9.70;1.00;;;;;;7379906;19;20017;-70
2023/12/25 06:43:36;;;;;;;1.08;0.70;;;9.70;1.00;;;;;;7380307;19;20003;-69
2023/12/25 06:46:06;;;;;;;1.23;0.70;;;9.70;1.00;;;;;;7381284;19;20017;-70
2023/12/25 06:48:36;;;;;;;0.95;0.60;;;9.70;1.00;;;;;;7380651;19;20010;-70
2023/12/25 06:51:07;;;;;;;1.02;0.60;;;9.70;1.00;;;;;;7380279;19;20003;-68
2023/12/25 06:53:37;;;;;;;1.20;0.70;;;9.70;1.00;;;;;;7380920;19;20037;-70
2023/12/25 06:56:10;;;;;;;4.72;2.95;;;9.70;1.00;;;;;;7381681;19;20049;-70
2023/12/25 06:58:43;;;;;;;0.85;0.60;;;9.60;1.00;;;;;;7377722;19;20010;-70
2023/12/25 07:01:13;;;;;;;1.10;0.80;;;9.60;1.00;;;;;;7378501;19;20081;-70
2023/12/25 07:03:43;;;;;;;2.30;0.80;;;9.60;1.00;;;;;;7378055;19;20014;-71
2023/12/25 07:06:13;;;;;;;1.10;0.60;;;9.60;1.00;;;;;;7378706;19;20010;-71
2023/12/25 07:08:43;;;;;;;1.20;0.50;;;9.60;1.00;;;;;;7378770;19;20134;-70
2023/12/25 07:11:13;;;;;;;0.73;0.60;;;9.60;1.00;;;;;;7378944;19;20011;-70
2023/12/25 07:13:45;;;;;;;1.38;0.70;;;9.60;1.00;;;;;;7378664;19;20307;-70
2023/12/25 07:16:22;;;;;;;1.02;0.60;;;9.60;1.00;;;;;;7378996;19;20044;-70
2023/12/25 07:18:53;;;;;;;0.88;0.70;;;9.60;1.00;;;;;;7378502;19;20015;-69
2023/12/25 07:21:24;;;;;;;2.22;0.70;;;9.70;1.00;;;;;;7378953;19;20010;-70
2023/12/25 07:23:56;;;;;;;0.75;0.50;;;9.60;1.00;;;;;;7378976;19;20042;-70
2023/12/25 07:26:26;;;;;;;1.15;0.60;;;9.60;1.00;;;;;;7377764;19;20043;-70
2023/12/25 07:28:59;;;;;;;1.23;0.60;;;9.60;1.00;;;;;;7377023;19;20010;-70
2023/12/25 07:31:29;;;;;;;0.90;0.60;;;9.60;1.00;;;;;;7379394;19;20019;-70
2023/12/25 07:33:59;;;;;;;0.80;0.50;;;9.60;1.00;;;;;;7377396;19;20023;-70
2023/12/25 07:36:29;;;;;;;1.08;0.60;;;9.60;1.00;;;;;;7379572;19;20336;-70
2023/12/25 07:38:59;;;;;;;0.90;0.50;;;9.60;1.00;;;;;;7377882;19;20471;-70
2023/12/25 07:41:30;;;;;;;0.98;0.70;;;9.60;1.00;;;;;;7377495;19;20075;-69
2023/12/25 07:44:03;;;;;;;1.17;0.80;;;9.70;1.00;;;;;;7378080;19;20054;-70
2023/12/25 07:46:32;;;;;;;0.88;0.60;;;9.70;1.00;;;;;;7378306;19;20053;-70
2023/12/25 07:49:02;;;;;;;0.90;0.60;;;9.60;1.00;;;;;;7377191;19;20003;-70
2023/12/25 07:51:33;;;;;;;1.00;0.70;;;9.70;1.00;;;;;;7378815;19;20082;-69
2023/12/25 07:54:03;;;;;;;0.68;0.40;;;9.70;1.00;;;;;;7378314;19;20006;-70
2023/12/25 07:56:33;;;;;;;1.20;0.85;;;9.70;1.00;;;;;;7378514;19;20463;-70
2023/12/25 07:59:06;;;;;;;3.55;0.70;;;9.80;1.00;;;;;;7377027;19;20094;-70
2023/12/25 08:01:36;;;;;;;0.88;0.57;;;9.70;1.00;;;;;;7377145;19;20067;-70
2023/12/25 08:04:06;;;;;;;1.02;0.63;;;9.80;1.00;;;;;;7377665;19;20007;-70
2023/12/25 08:06:36;;;;;;;0.75;0.55;;;9.80;1.00;;;;;;7377297;19;20010;-70
2023/12/25 08:09:06;;;;;;;1.25;0.75;;;9.90;1.00;;;;;;7377379;19;20010;-69
2023/12/25 08:11:36;;;;;;;1.33;0.82;;;9.90;1.00;;;;;;7378250;19;20045;-71
2023/12/25 08:14:08;;;;;;;1.45;0.75;;;9.90;1.00;;;;;;7376101;19;20090;-70
2023/12/25 08:16:38;;;;;;;1.10;0.60;;;9.90;1.00;;;;;;7378052;19;20066;-70
2023/12/25 08:19:08;;;;;;;1.27;0.80;;;9.90;1.00;;;;;;7376267;19;20018;-70
2023/12/25 08:21:38;;;;;;;0.73;0.70;;;10.00;1.00;;;;;;7377888;19;20014;-70
2023/12/25 08:24:09;;;;;;;2.55;1.13;;;10.00;1.00;;;;;;7377020;19;20744;-70
2023/12/25 08:26:39;;;;;;;1.88;0.60;;;10.00;1.00;;;;;;7377811;19;20068;-69
2023/12/25 08:29:11;;;;;;;1.70;0.70;;;10.10;1.00;;;;;;7376822;19;20022;-70
2023/12/25 08:31:41;;;;;;;0.68;0.60;;;10.10;1.00;;;;;;7379098;19;20015;-70
2023/12/25 08:34:12;;;;;;;2.05;0.70;;;10.10;1.00;;;;;;7379433;19;20353;-70
2023/12/25 08:36:42;;;;;;;1.73;0.95;;;10.10;1.00;;;;;;7383460;19;20017;-70
2023/12/25 08:39:12;;;;;;;1.05;0.80;;;10.10;1.00;;;;;;7378616;19;20421;-70
2023/12/25 08:41:42;;;;;;;2.42;1.60;;;10.20;1.00;;;;;;7378728;19;20053;-70
2023/12/25 08:44:15;;;;;;;1.58;1.00;;;10.20;1.00;;;;;;7377181;19;20518;-70
2023/12/25 08:46:46;;;;;;;1.65;1.02;;;10.20;1.00;;;;;;7376294;19;20772;-71
2023/12/25 08:49:16;;;;;;;2.42;1.85;;;10.30;1.00;;;;;;7375036;19;20707;-70
2023/12/25 08:51:47;;;;;;;1.30;0.80;;;10.40;1.00;;;;;;7376744;19;20011;-70
2023/12/25 08:54:17;;;;;;;1.67;0.63;;;10.40;1.00;;;;;;7375622;19;20535;-70
2023/12/25 08:56:47;;;;;;;3.30;1.58;;;10.50;1.00;;;;;;7375620;19;20030;-70
2023/12/25 08:59:19;;;;;;;1.60;0.88;;;10.60;1.00;;;;;;7376400;19;20014;-70
2023/12/25 09:01:49;;;;;;;1.30;0.70;;;10.50;1.00;;;;;;7375625;19;20024;-70
2023/12/25 09:04:19;;;;;;;0.85;0.63;;;10.50;1.00;;;;;;7376278;19;20006;-69
2023/12/25 09:06:49;;;;;;;0.80;0.60;;;10.50;1.00;;;;;;7376832;19;20010;-70
2023/12/25 09:09:19;;;;;;;2.00;0.80;;;10.50;1.00;;;;;;7375498;19;20014;-70
2023/12/25 09:11:49;;;;;;;1.38;0.65;;;10.50;1.00;;;;;;7375798;19;20007;-70
2023/12/25 09:14:22;;;;;;;1.60;0.90;;;10.50;1.00;;;;;;7374864;19;20074;-69
2023/12/25 09:16:52;;;;;;;1.27;0.80;;;10.50;1.00;;;;;;7375219;19;20017;-70
2023/12/25 09:19:22;;;;;;;1.58;0.80;;;10.50;1.00;;;;;;7374968;19;20035;-70
2023/12/25 09:21:52;;;;;;;3.03;0.82;;;10.50;1.00;;;;;;7375560;19;20014;-70
2023/12/25 09:24:22;;;;;;;1.30;0.70;;;10.60;1.00;;;;;;7375636;19;20007;-71
2023/12/25 09:26:54;;;;;;;1.15;0.60;;;10.60;1.00;;;;;;7376117;19;20006;-70
2023/12/25 09:29:27;;;;;;;0.95;0.75;;;10.60;1.00;;;;;;7375055;19;20097;-71
2023/12/25 09:31:57;;;;;;;1.40;0.77;;;10.60;1.00;;;;;;7376192;19;20010;-70
2023/12/25 09:34:27;;;;;;;1.27;0.77;;;10.80;1.00;;;;;;7375270;19;20014;-70
2023/12/25 09:37:09;;;;;;;1.17;0.70;;;10.90;1.00;;;;;;7377453;19;20003;-71
2023/12/25 09:39:39;;;;;;;1.63;0.60;;;11.10;1.00;;;;;;7374179;19;20026;-71
2023/12/25 09:42:09;;;;;;;0.88;0.63;;;11.40;1.00;;;;;;7376616;19;20514;-72
2023/12/25 09:44:43;;;;;;;0.60;0.45;;;11.60;1.00;;;;;;7374001;19;20504;-69
2023/12/25 09:47:14;;;;;;;0.82;0.50;;;11.60;1.00;;;;;;7375772;19;20023;-70
2023/12/25 09:49:47;;;;;;;0.60;0.40;;;11.50;1.00;;;;;;7374157;19;20035;-71
2023/12/25 09:52:19;;;;;;;2.35;0.80;;;11.60;1.00;;;;;;7375571;19;20006;-71
2023/12/25 09:54:49;;;;;;;0.82;0.50;;;11.60;1.00;;;;;;7375021;19;20015;-71
2023/12/25 09:57:20;;;;;;;0.82;0.50;;;11.60;1.00;;;;;;7374625;19;20010;-71
2023/12/25 09:59:54;;;;;;;0.70;0.50;;;11.70;1.00;;;;;;7382583;19;20010;-71
2023/12/25 10:02:25;;;;;;;0.77;0.70;;;11.70;1.00;;;;;;7380690;19;20021;-71
2023/12/25 10:04:55;;;;;;;0.40;0.40;;;11.70;1.00;;;;;;7381316;19;20260;-71
2023/12/25 10:07:25;;;;;;;1.00;0.50;;;11.70;1.00;;;;;;7381366;19;20479;-70
2023/12/25 10:09:56;;;;;;;0.50;0.40;;;11.70;1.00;;;;;;7381138;19;20021;-71
2023/12/25 10:12:26;;;;;;;1.20;0.70;;;11.60;1.00;;;;;;7382217;19;20007;-71
2023/12/25 10:14:58;;;;;;;0.70;0.43;;;11.50;1.00;;;;;;7380766;19;20026;-70
2023/12/25 10:17:29;;;;;;;1.30;0.70;;;11.60;1.00;;;;;;7380691;19;20602;-71
2023/12/25 10:19:59;;;;;;;2.15;0.60;;;11.60;1.00;;;;;;7381962;19;20455;-71
2023/12/25 10:22:33;;;;;;;2.75;0.60;;;11.60;1.00;;;;;;7380584;19;20018;-70
2023/12/25 10:25:05;;;;;;;0.80;0.80;;;11.80;1.00;;;;;;7380397;19;20007;-70
2023/12/25 10:27:35;;;;;;;0.95;0.50;;;11.80;1.00;;;;;;7380412;19;20018;-70
2023/12/25 10:30:17;;;;;;;0.68;0.50;;;11.90;1.00;;;;;;7380518;19;20038;-72
2023/12/25 10:32:47;;;;;;;2.38;0.60;;;12.10;1.00;;;;;;7380301;19;20459;-71
2023/12/25 10:35:22;;;;;;;1.05;0.57;;;12.10;1.00;;;;;;7382213;19;20107;-71
2023/12/25 10:37:52;;;;;;;0.60;0.43;;;12.10;1.00;;;;;;7380601;19;20013;-71
2023/12/25 10:40:24;;;;;;;1.50;0.60;;;12.00;1.00;;;;;;7381995;19;20019;-71
2023/12/25 10:42:56;;;;;;;0.60;0.40;;;12.00;1.00;;;;;;7379275;19;20014;-71
2023/12/25 10:45:30;;;;;;;1.13;0.43;;;11.90;1.00;;;;;;7380501;19;20018;-71
2023/12/25 10:48:02;;;;;;;;;;;11.80;1.00;;;;;;7379718;19;20010;-70
2023/12/25 10:50:38;;;;;;;0.57;0.40;;;11.90;1.00;;;;;;7380483;19;20547;-71
2023/12/25 10:53:11;;;;;;;3.22;0.60;;;11.90;1.00;;;;;;7379479;19;20014;-70
2023/12/25 10:55:45;;;;;;;1.38;0.40;;;11.80;1.00;;;;;;7378873;19;20741;-70
2023/12/25 10:58:17;;;;;;;0.60;0.50;;;11.80;1.00;;;;;;7379622;19;20026;-72
2023/12/25 11:00:56;;;;;;;0.60;0.40;;;11.90;1.00;;;;;;7380478;19;20002;-71
2023/12/25 11:03:27;;;;;;;0.70;0.50;;;11.90;1.00;;;;;;7379147;19;20026;-71
2023/12/25 11:05:58;;;;;;;2.58;0.60;;;11.80;1.00;;;;;;7377697;19;20068;-71
2023/12/25 11:08:28;;;;;;;2.22;0.95;;;11.90;1.00;;;;;;7378760;19;20053;-71
2023/12/25 11:11:07;;;;;;;1.77;0.90;;;11.90;1.00;;;;;;7377969;19;20024;-71
2023/12/25 11:13:38;;;;;;;0.65;0.43;;;11.90;1.00;;;;;;7380254;19;20567;-71
2023/12/25 11:16:11;;;;;;;0.93;0.40;;;11.80;1.00;;;;;;7378786;19;19998;-71
2023/12/25 11:18:41;;;;;;;0.77;0.30;;;11.80;1.00;;;;;;7378760;19;20082;-71
2023/12/25 11:21:18;;;;;;;0.60;0.40;;;11.80;1.00;;;;;;7378190;19;20006;-71
2023/12/25 11:23:51;;;;;;;0.60;0.30;;;11.80;1.00;;;;;;7378171;19;20003;-70
2023/12/25 11:26:26;;;;;;;0.40;0.30;;;11.80;1.00;;;;;;7380824;19;20018;-70
2023/12/25 11:28:59;;;;;;;1.58;0.30;;;11.80;1.00;;;;;;7377362;19;20010;-70
2023/12/25 11:31:42;;;;;;;1.65;0.32;;;12.00;1.00;;;;;;7379319;19;20482;-70
2023/12/25 11:34:24;;;;;;;3.10;1.00;;;12.10;1.00;;;;;;7378665;19;20475;-71
2023/12/25 11:36:58;;;;;;;6.53;4.05;;;12.10;1.00;;;;;;7378452;19;20807;-70
2023/12/25 11:39:30;;;;;;;1.80;1.20;;;12.00;1.00;;;;;;7371269;19;20017;-71
2023/12/25 11:42:02;;;;;;;0.47;0.30;;;11.90;1.00;;;;;;7380690;19;20013;-71
2023/12/25 11:44:34;;;;;;;0.52;0.40;;;11.80;1.00;;;;;;7378741;19;20010;-71
2023/12/25 11:47:07;;;;;;;0.77;0.60;;;11.80;1.00;;;;;;7379501;19;20014;-71
2023/12/25 11:49:40;;;;;;;0.50;0.50;;;11.80;1.00;;;;;;7379095;19;20010;-71
2023/12/25 11:52:14;;;;;;;0.63;0.43;;;11.80;1.00;;;;;;7379267;19;20115;-71
2023/12/25 11:54:44;;;;;;;0.90;0.40;;;11.80;1.00;;;;;;7377823;19;20010;-71
2023/12/25 11:57:21;;;;;;;2.97;0.50;;;11.80;1.00;;;;;;7379740;19;20006;-71
2023/12/25 11:59:51;;;;;;;0.60;0.30;;;11.80;1.00;;;;;;7378381;19;20018;-72
2023/12/25 12:02:25;;;;;;;0.50;0.40;;;11.80;1.00;;;;;;7379132;19;20015;-71
2023/12/25 12:04:55;;;;;;;0.40;0.30;;;11.90;1.00;;;;;;7379350;19;20006;-70
2023/12/25 12:07:25;;;;;;;0.35;0.28;;;11.80;1.00;;;;;;7378788;19;20010;-71
2023/12/25 12:09:55;;;;;;;0.90;0.35;;;11.70;1.00;;;;;;7378214;19;20011;-71
2023/12/25 12:12:25;;;;;;;0.70;0.30;;;11.60;1.00;;;;;;7375791;19;20010;-68
2023/12/25 12:14:56;;;;;;;0.70;0.40;;;11.50;1.00;;;;;;7377647;19;20018;-70
2023/12/25 12:17:29;;;;;;;1.33;0.30;;;11.50;1.00;;;;;;7378136;19;20317;-70
2023/12/25 12:19:59;;;;;;;0.50;0.40;;;11.50;1.00;;;;;;7379197;19;20003;-70
2023/12/25 12:22:29;;;;;;;0.40;0.30;;;11.40;1.00;;;;;;7376776;19;20027;-70
2023/12/25 12:25:14;;;;;;;0.20;0.20;;;11.40;1.00;;;;;;7377247;19;20010;-70
2023/12/25 12:27:44;;;;;;;0.35;0.30;;;11.40;1.00;;;;;;7375452;19;20375;-70
2023/12/25 12:30:16;;;;;;;1.20;0.70;;;11.40;1.00;;;;;;7377312;19;20013;-70
2023/12/25 12:32:49;;;;;;;0.68;0.35;;;11.50;1.00;;;;;;7377621;19;20006;-70
2023/12/25 12:35:19;;;;;;;0.52;0.30;;;11.40;1.00;;;;;;7377230;19;20073;-69
2023/12/25 12:37:51;;;;;;;0.80;0.25;;;11.40;1.00;;;;;;7376176;19;20010;-69
2023/12/25 12:40:21;;;;;;;0.50;0.28;;;11.40;1.00;;;;;;7376639;19;20031;-68
2023/12/25 12:42:53;;;;;;;0.32;0.22;;;11.40;1.00;;;;;;7377500;19;20510;-70
2023/12/25 12:45:23;;;;;;;1.55;0.47;;;11.40;1.00;;;;;;7375822;19;20007;-70
2023/12/25 12:47:58;;;;;;;0.20;0.20;;;11.40;1.00;;;;;;7375103;19;20501;-69
2023/12/25 12:50:29;;;;;;;1.02;0.70;;;11.30;1.00;;;;;;7376074;19;20011;-69
2023/12/25 12:52:59;;;;;;;0.77;0.40;;;11.30;1.00;;;;;;7376720;19;20502;-68
2023/12/25 12:55:30;;;;;;;0.57;0.30;;;11.20;1.00;;;;;;7375959;19;20039;-71
2023/12/25 12:58:00;;;;;;;0.30;0.30;;;11.30;1.00;;;;;;7375558;19;20018;-70
2023/12/25 13:00:30;;;;;;;0.45;0.30;;;11.20;1.00;;;;;;7376695;19;20014;-70
2023/12/25 13:03:03;;;;;;;8.15;4.70;;;11.20;1.00;;;;;;7376667;19;20315;-71
2023/12/25 13:05:34;;;;;;;1.08;0.40;;;11.30;1.00;;;;;;7376624;19;20018;-70
2023/12/25 13:08:04;;;;;;;0.70;0.43;;;11.20;1.00;;;;;;7374582;19;20134;-71
2023/12/25 13:10:35;;;;;;;2.08;1.15;;;11.20;1.00;;;;;;7376813;19;20364;-71
2023/12/25 13:13:05;;;;;;;1.65;0.73;;;11.20;1.00;;;;;;7374377;19;20473;-71
2023/12/25 13:15:36;;;;;;;0.40;0.20;;;11.30;1.00;;;;;;7372516;19;20007;-71
2023/12/25 13:18:09;;;;;;;1.55;0.30;;;11.30;1.00;;;;;;7375915;19;20028;-70
2023/12/25 13:20:39;;;;;;;0.77;0.22;;;11.20;1.00;;;;;;7373798;19;20093;-70